createdAt,value
2023-05-25T00:00:20.641Z,13.73
2023-05-25T00:02:47.744Z,15.98
2023-05-25T00:05:15.026Z,15.38
2023-05-25T00:07:41.884Z,13.60
2023-05-25T00:10:09.477Z,17.50
2023-05-25T00:12:37.748Z,15.30
2023-05-25T00:15:08.325Z,13.05
2023-05-25T00:17:37.294Z,16.63
2023-05-25T00:20:07.376Z,16.80
2023-05-25T00:22:38.329Z,16.60
2023-05-25T00:25:06.911Z,17.27
2023-05-25T00:27:33.802Z,24.13
2023-05-25T00:30:00.729Z,15.55
2023-05-25T00:32:27.717Z,13.13
2023-05-25T00:34:55.417Z,15.05
2023-05-25T00:37:22.315Z,15.77
2023-05-25T00:39:49.112Z,15.77
2023-05-25T00:42:16.485Z,18.60
2023-05-25T00:44:43.384Z,9.73
2023-05-25T00:47:11.806Z,18.70
2023-05-25T00:49:38.751Z,14.98
2023-05-25T00:52:06.416Z,17.73
2023-05-25T00:54:35.198Z,18.52
2023-05-25T00:57:04.837Z,16.15
2023-05-25T00:59:41.447Z,14.93
2023-05-25T01:02:11.068Z,21.98
2023-05-25T01:05:01.001Z,21.50
2023-05-25T01:07:29.160Z,12.68
2023-05-25T01:10:02.313Z,17.45
2023-05-25T01:12:32.526Z,18.17
2023-05-25T01:15:02.310Z,16.40
2023-05-25T01:17:29.250Z,12.95
2023-05-25T01:20:09.832Z,18.77
2023-05-25T01:22:48.964Z,18.55
2023-05-25T01:25:23.098Z,15.88
2023-05-25T01:28:02.537Z,17.02
2023-05-25T01:30:32.887Z,16.67
2023-05-25T01:33:01.333Z,22.70
2023-05-25T01:35:29.100Z,15.80
2023-05-25T01:37:58.273Z,17.52
2023-05-25T01:40:25.128Z,17.65
2023-05-25T01:42:51.958Z,19.73
2023-05-25T01:45:19.058Z,15.45
2023-05-25T01:48:01.248Z,17.45
2023-05-25T01:50:41.121Z,15.88
2023-05-25T01:53:13.744Z,21.38
2023-05-25T01:55:52.669Z,16.48
2023-05-25T01:58:20.398Z,23.85
2023-05-25T02:00:49.657Z,13.02
2023-05-25T02:03:18.195Z,19.25
2023-05-25T02:05:46.872Z,21.55
2023-05-25T02:08:13.837Z,19.30
2023-05-25T02:10:40.775Z,16.00
2023-05-25T02:13:07.782Z,17.98
2023-05-25T02:15:34.860Z,17.05
2023-05-25T02:18:01.737Z,18.40
2023-05-25T02:20:28.669Z,14.73
2023-05-25T02:22:55.658Z,18.35
2023-05-25T02:25:22.464Z,22.88
2023-05-25T02:27:50.513Z,15.90
2023-05-25T02:30:17.377Z,12.85
2023-05-25T02:32:44.288Z,19.00
2023-05-25T02:35:11.550Z,13.10
2023-05-25T02:37:39.175Z,16.65
2023-05-25T02:40:06.883Z,12.80
2023-05-25T02:42:33.716Z,21.55
2023-05-25T02:45:00.550Z,15.77
2023-05-25T02:47:27.443Z,21.13
2023-05-25T02:49:54.321Z,15.70
2023-05-25T02:52:22.566Z,17.83
2023-05-25T02:54:49.628Z,16.50
2023-05-25T02:57:16.859Z,19.33
2023-05-25T02:59:43.639Z,22.70
2023-05-25T03:02:10.744Z,22.77
2023-05-25T03:04:38.914Z,17.00
2023-05-25T03:07:05.730Z,17.85
2023-05-25T03:09:32.877Z,18.88
2023-05-25T03:11:59.674Z,15.38
2023-05-25T03:14:26.711Z,22.83
2023-05-25T03:16:54.190Z,19.35
2023-05-25T03:19:21.468Z,15.43
2023-05-25T03:21:48.381Z,18.77
2023-05-25T03:24:15.175Z,19.02
2023-05-25T03:26:41.959Z,18.40
2023-05-25T03:29:08.922Z,19.67
2023-05-25T03:31:36.300Z,17.33
2023-05-25T03:34:04.240Z,21.75
2023-05-25T03:36:32.677Z,18.73
2023-05-25T03:38:59.884Z,22.05
2023-05-25T03:41:27.076Z,15.65
2023-05-25T03:43:54.011Z,18.20
2023-05-25T03:46:21.010Z,21.48
2023-05-25T03:48:48.184Z,25.58
2023-05-25T03:51:15.039Z,15.80
2023-05-25T03:53:41.846Z,24.92
2023-05-25T03:56:08.690Z,24.25
2023-05-25T03:58:35.537Z,20.10
2023-05-25T04:01:04.973Z,17.85
2023-05-25T04:03:33.843Z,24.88
2023-05-25T04:06:02.067Z,17.73
2023-05-25T04:08:29.321Z,18.50
2023-05-25T04:10:57.167Z,19.52
2023-05-25T04:13:24.009Z,18.17
2023-05-25T04:15:51.323Z,17.35
2023-05-25T04:18:19.137Z,16.40
2023-05-25T04:20:46.723Z,17.88
2023-05-25T04:23:13.564Z,26.35
2023-05-25T04:25:42.144Z,17.25
2023-05-25T04:28:12.327Z,26.90
2023-05-25T04:30:39.732Z,22.35
2023-05-25T04:33:06.602Z,22.02
2023-05-25T04:35:33.558Z,17.65
2023-05-25T04:38:02.776Z,23.10
2023-05-25T04:40:30.094Z,20.58
2023-05-25T04:42:57.059Z,16.58
2023-05-25T04:45:23.996Z,15.70
2023-05-25T04:47:51.363Z,21.05
2023-05-25T04:50:18.731Z,17.92
2023-05-25T04:52:45.819Z,22.80
2023-05-25T04:55:12.866Z,21.25
2023-05-25T04:57:39.811Z,24.33
2023-05-25T05:00:09.887Z,17.52
2023-05-25T05:02:37.177Z,22.55
2023-05-25T05:05:04.312Z,19.88
2023-05-25T05:07:31.684Z,16.20
2023-05-25T05:09:58.604Z,17.13
2023-05-25T05:12:25.382Z,15.90
2023-05-25T05:14:53.068Z,17.90
2023-05-25T05:17:19.863Z,21.38
2023-05-25T05:19:46.696Z,19.40
2023-05-25T05:22:15.869Z,20.58
2023-05-25T05:24:42.845Z,14.25
2023-05-25T05:27:10.629Z,15.68
2023-05-25T05:29:37.523Z,15.55
2023-05-25T05:32:04.558Z,17.58
2023-05-25T05:34:31.531Z,17.25
2023-05-25T05:37:00.078Z,18.38
2023-05-25T05:39:28.072Z,21.50
2023-05-25T05:41:55.854Z,21.55
2023-05-25T05:44:26.008Z,19.63
2023-05-25T05:46:59.997Z,24.35
2023-05-25T05:49:28.483Z,17.73
2023-05-25T05:51:55.621Z,17.65
2023-05-25T05:54:22.512Z,15.65
2023-05-25T05:56:50.386Z,19.77
2023-05-25T05:59:17.356Z,18.45
2023-05-25T06:01:44.298Z,14.07
2023-05-25T06:04:11.120Z,21.70
2023-05-25T06:06:38.627Z,18.73
2023-05-25T06:09:06.898Z,16.02
2023-05-25T06:11:39.922Z,13.52
2023-05-25T06:16:33.977Z,16.52
2023-05-25T06:19:01.281Z,19.30
2023-05-25T06:21:28.291Z,14.60
2023-05-25T06:23:57.740Z,15.52
2023-05-25T06:26:24.966Z,15.50
2023-05-25T06:28:51.947Z,21.73
2023-05-25T06:31:19.018Z,15.38
2023-05-25T06:33:46.012Z,13.68
2023-05-25T06:36:15.912Z,18.75
2023-05-25T06:38:43.080Z,18.15
2023-05-25T06:41:12.726Z,16.48
2023-05-25T06:43:39.610Z,21.65
2023-05-25T06:46:06.503Z,19.27
2023-05-25T06:48:33.326Z,17.25
2023-05-25T06:51:00.154Z,18.08
2023-05-25T06:53:26.969Z,16.85
2023-05-25T06:55:53.784Z,15.00
2023-05-25T06:58:20.747Z,17.38
2023-05-25T07:00:47.599Z,16.33
2023-05-25T07:03:14.513Z,16.83
2023-05-25T07:05:41.523Z,16.83
2023-05-25T07:08:08.469Z,19.02
2023-05-25T07:10:35.454Z,13.10
2023-05-25T07:13:02.340Z,21.92
2023-05-25T07:15:29.167Z,16.80
2023-05-25T07:17:57.251Z,12.68
2023-05-25T07:20:24.638Z,17.08
2023-05-25T07:22:53.239Z,20.67
2023-05-25T07:25:20.176Z,17.38
2023-05-25T07:27:50.455Z,17.30
2023-05-25T07:30:17.388Z,18.83
2023-05-25T07:32:44.339Z,14.80
2023-05-25T07:35:11.248Z,15.40
2023-05-25T07:37:38.147Z,12.45
2023-05-25T07:40:06.211Z,10.98
2023-05-25T07:42:34.501Z,12.02
2023-05-25T07:45:02.490Z,15.07
2023-05-25T07:47:29.549Z,13.00
2023-05-25T07:49:56.459Z,18.10
2023-05-25T07:52:23.265Z,15.20
2023-05-25T07:54:50.111Z,15.10
2023-05-25T07:57:17.087Z,12.02
2023-05-25T07:59:44.860Z,11.93
2023-05-25T08:02:11.729Z,16.73
2023-05-25T08:04:38.791Z,12.45
2023-05-25T08:07:05.715Z,11.60
2023-05-25T08:09:32.557Z,8.85
2023-05-25T08:12:18.591Z,11.23
2023-05-25T08:14:46.846Z,11.32
2023-05-25T08:17:13.849Z,11.23
2023-05-25T08:19:40.751Z,11.40
2023-05-25T08:22:07.582Z,11.63
2023-05-25T08:24:34.415Z,11.70
2023-05-25T08:27:01.907Z,14.52
2023-05-25T08:29:28.737Z,12.45
2023-05-25T08:31:55.705Z,11.55
2023-05-25T08:34:22.644Z,9.95
2023-05-25T08:36:49.581Z,10.07
2023-05-25T08:39:16.743Z,13.38
2023-05-25T08:41:44.772Z,12.25
2023-05-25T08:44:14.254Z,13.68
2023-05-25T08:46:41.273Z,12.90
2023-05-25T08:49:13.984Z,16.75
2023-05-25T08:51:53.000Z,12.73
2023-05-25T08:54:34.572Z,12.48
2023-05-25T08:57:16.786Z,12.77
2023-05-25T09:00:11.626Z,17.85
2023-05-25T09:02:57.988Z,13.23
2023-05-25T09:05:25.279Z,9.02
2023-05-25T09:07:54.764Z,21.48
2023-05-25T09:10:22.331Z,11.65
2023-05-25T09:12:52.042Z,13.77
2023-05-25T09:15:19.220Z,9.52
2023-05-25T09:17:46.175Z,14.00
2023-05-25T09:20:16.382Z,19.65
2023-05-25T09:22:44.484Z,13.48
2023-05-25T09:25:13.472Z,10.02
2023-05-25T09:27:42.315Z,12.70
2023-05-25T09:30:09.734Z,10.65
2023-05-25T09:32:38.120Z,15.38
2023-05-25T09:35:08.798Z,15.57
2023-05-25T09:37:37.405Z,7.97
2023-05-25T09:40:06.568Z,16.23
2023-05-25T09:42:37.889Z,13.68
2023-05-25T09:45:06.184Z,13.15
2023-05-25T09:47:33.808Z,9.25
2023-05-25T09:50:00.704Z,13.45
2023-05-25T09:52:27.781Z,9.98
2023-05-25T09:54:56.207Z,11.23
2023-05-25T09:57:23.034Z,11.85
2023-05-25T09:59:50.031Z,10.82
2023-05-25T10:02:16.937Z,10.65
2023-05-25T10:04:43.857Z,9.80
2023-05-25T10:07:11.211Z,9.70
2023-05-25T10:09:43.367Z,11.10
2023-05-25T10:12:11.167Z,15.07
2023-05-25T10:14:39.041Z,10.70
2023-05-25T10:17:07.157Z,10.15
2023-05-25T10:19:41.480Z,9.80
2023-05-25T10:22:37.054Z,12.35
2023-05-25T10:25:28.516Z,9.82
2023-05-25T10:28:03.555Z,13.90
2023-05-25T10:30:30.639Z,13.95
2023-05-25T10:32:57.713Z,11.10
2023-05-25T10:35:25.180Z,16.73
2023-05-25T10:37:53.908Z,9.52
2023-05-25T10:40:24.358Z,9.68
2023-05-25T10:42:51.864Z,9.40
2023-05-25T10:45:19.093Z,11.35
2023-05-25T10:47:46.515Z,16.42
2023-05-25T10:50:19.560Z,9.93
2023-05-25T10:55:13.228Z,8.50
2023-05-25T10:57:40.081Z,11.00
2023-05-25T11:00:10.169Z,23.13
2023-05-25T11:02:56.112Z,8.70
2023-05-25T11:05:31.682Z,13.80
2023-05-25T11:08:02.561Z,10.45
2023-05-25T11:10:48.262Z,9.15
2023-05-25T11:13:31.156Z,9.65
2023-05-25T11:16:17.600Z,7.15
2023-05-25T11:18:53.311Z,10.43
2023-05-25T11:21:27.136Z,8.68
2023-05-25T11:23:58.845Z,8.95
2023-05-25T11:26:31.101Z,10.05
2023-05-25T11:28:59.334Z,10.10
2023-05-25T11:31:39.124Z,9.95
2023-05-25T11:34:09.427Z,9.10
2023-05-25T11:36:36.885Z,9.10
2023-05-25T11:39:11.746Z,7.95
2023-05-25T11:42:03.921Z,13.18
2023-05-25T11:44:36.294Z,10.30
2023-05-25T11:47:10.105Z,8.07
2023-05-25T11:49:49.687Z,9.20
2023-05-25T11:52:18.959Z,8.02
2023-05-25T11:54:46.898Z,8.05
2023-05-25T11:57:15.665Z,7.65
2023-05-25T11:59:52.143Z,10.15
2023-05-25T12:02:20.475Z,7.85
2023-05-25T12:05:04.242Z,9.80
2023-05-25T12:07:32.044Z,11.80
2023-05-25T12:10:13.746Z,13.52
2023-05-25T12:12:47.970Z,11.00
2023-05-25T12:15:21.053Z,12.95
2023-05-25T12:17:48.966Z,12.88
2023-05-25T12:20:18.125Z,10.10
2023-05-25T12:22:46.388Z,8.45
2023-05-25T12:25:15.886Z,7.03
2023-05-25T12:27:43.732Z,8.85
2023-05-25T12:30:11.447Z,7.03
2023-05-25T12:33:04.568Z,8.55
2023-05-25T12:35:49.138Z,9.00
2023-05-25T12:38:19.662Z,13.15
2023-05-25T12:40:46.978Z,10.82
2023-05-25T12:43:15.346Z,10.00
2023-05-25T12:45:43.536Z,10.05
2023-05-25T12:48:10.762Z,8.75
2023-05-25T12:50:38.221Z,6.90
2023-05-25T12:53:05.892Z,7.38
2023-05-25T12:55:35.511Z,7.18
2023-05-25T12:58:06.690Z,7.20
2023-05-25T13:00:38.720Z,11.82
2023-05-25T13:03:09.809Z,7.88
2023-05-25T13:05:38.143Z,8.95
2023-05-25T13:08:06.719Z,6.30
2023-05-25T13:10:37.120Z,10.70
2023-05-25T13:13:04.737Z,8.38
2023-05-25T13:15:31.827Z,9.00
2023-05-25T13:17:58.976Z,7.95
2023-05-25T13:20:27.243Z,7.78
2023-05-25T13:22:57.872Z,7.60
2023-05-25T13:25:27.637Z,9.77
2023-05-25T13:27:56.858Z,6.90
2023-05-25T13:30:23.846Z,9.75
2023-05-25T13:32:52.919Z,13.77
2023-05-25T13:35:37.177Z,6.07
2023-05-25T13:38:04.402Z,8.63
2023-05-25T13:40:31.247Z,8.50
2023-05-25T13:42:58.045Z,12.63
2023-05-25T13:45:24.844Z,11.57
2023-05-25T13:47:52.027Z,12.70
2023-05-25T13:50:19.859Z,8.15
2023-05-25T13:52:46.688Z,5.30
2023-05-25T13:55:13.516Z,10.80
2023-05-25T13:57:40.316Z,14.55
2023-05-25T14:00:08.489Z,10.65
2023-05-25T14:02:36.662Z,10.60
2023-05-25T14:05:03.817Z,11.93
2023-05-25T14:07:31.234Z,8.43
2023-05-25T14:10:00.130Z,12.65
2023-05-25T14:12:27.396Z,6.50
2023-05-25T14:14:54.264Z,8.88
2023-05-25T14:17:21.383Z,8.45
2023-05-25T14:19:48.217Z,6.25
2023-05-25T14:22:15.352Z,5.90
2023-05-25T14:24:42.320Z,6.32
2023-05-25T14:27:09.381Z,6.53
2023-05-25T14:29:36.350Z,5.68
2023-05-25T14:32:03.641Z,14.10
2023-05-25T14:34:31.617Z,7.18
2023-05-25T14:36:59.249Z,7.32
2023-05-25T14:39:26.584Z,8.57
2023-05-25T14:41:53.878Z,7.13
2023-05-25T14:44:20.899Z,9.45
2023-05-25T14:46:47.788Z,9.70
2023-05-25T14:49:16.780Z,6.88
2023-05-25T14:51:43.630Z,6.65
2023-05-25T14:54:13.406Z,8.73
2023-05-25T14:56:40.296Z,7.20
2023-05-25T14:59:07.193Z,6.10
2023-05-25T15:01:34.331Z,8.45
2023-05-25T15:04:01.375Z,9.23
2023-05-25T15:06:28.418Z,12.85
2023-05-25T15:08:55.385Z,7.45
2023-05-25T15:11:22.220Z,5.93
2023-05-25T15:13:49.061Z,6.60
2023-05-25T15:16:17.279Z,12.65
2023-05-25T15:18:44.992Z,9.05
2023-05-25T15:21:11.825Z,7.50
2023-05-25T15:23:38.666Z,7.18
2023-05-25T15:26:07.661Z,11.00
2023-05-25T15:28:34.868Z,7.70
2023-05-25T15:31:03.310Z,8.60
2023-05-25T15:33:48.521Z,6.03
2023-05-25T15:36:19.031Z,5.25
2023-05-25T15:38:49.122Z,9.07
2023-05-25T15:41:17.435Z,5.35
2023-05-25T15:43:58.558Z,11.48
2023-05-25T15:46:25.795Z,7.15
2023-05-25T15:48:53.232Z,7.82
2023-05-25T15:51:20.301Z,5.38
2023-05-25T15:53:48.006Z,8.38
2023-05-25T15:56:14.905Z,6.05
2023-05-25T15:58:41.859Z,8.10
2023-05-25T16:01:09.182Z,13.38
2023-05-25T16:03:37.036Z,7.38
2023-05-25T16:06:04.001Z,5.93
2023-05-25T16:08:30.823Z,6.03
2023-05-25T16:10:57.676Z,7.18
2023-05-25T16:13:24.499Z,6.57
2023-05-25T16:15:51.416Z,6.05
2023-05-25T16:18:18.372Z,11.88
2023-05-25T16:20:45.390Z,7.13
2023-05-25T16:23:12.430Z,5.93
2023-05-25T16:25:39.261Z,7.47
2023-05-25T16:28:06.105Z,6.25
2023-05-25T16:30:33.100Z,5.95
2023-05-25T16:33:00.052Z,6.53
2023-05-25T16:35:26.989Z,7.70
2023-05-25T16:37:53.868Z,6.05
2023-05-25T16:40:20.759Z,6.40
2023-05-25T16:42:47.697Z,6.63
2023-05-25T16:45:14.604Z,5.95
2023-05-25T16:47:41.464Z,6.93
2023-05-25T16:50:09.088Z,5.50
2023-05-25T16:52:36.037Z,7.35
2023-05-25T16:55:03.058Z,7.32
2023-05-25T16:57:29.964Z,4.80
2023-05-25T16:59:56.782Z,8.52
2023-05-25T17:02:23.797Z,6.30
2023-05-25T17:04:50.833Z,6.45
2023-05-25T17:07:17.944Z,5.15
2023-05-25T17:09:44.820Z,6.50
2023-05-25T17:12:11.710Z,7.35
2023-05-25T17:14:38.630Z,9.13
2023-05-25T17:17:05.748Z,9.48
2023-05-25T17:19:33.386Z,6.78
2023-05-25T17:22:00.242Z,6.63
2023-05-25T17:24:27.154Z,10.48
2023-05-25T17:26:54.080Z,8.30
2023-05-25T17:29:20.955Z,7.97
2023-05-25T17:31:48.950Z,6.35
2023-05-25T17:34:16.900Z,6.75
2023-05-25T17:36:43.826Z,9.13
2023-05-25T17:39:10.690Z,7.80
2023-05-25T17:41:37.616Z,6.72
2023-05-25T17:44:04.463Z,7.13
2023-05-25T17:46:31.424Z,6.07
2023-05-25T17:48:58.393Z,8.45
2023-05-25T17:51:25.725Z,7.85
2023-05-25T17:53:52.611Z,6.20
2023-05-25T17:56:19.480Z,6.72
2023-05-25T17:58:47.637Z,9.32
2023-05-25T18:01:16.011Z,9.20
2023-05-25T18:03:43.127Z,7.20
2023-05-25T18:06:10.264Z,6.18
2023-05-25T18:08:37.148Z,5.60
2023-05-25T18:11:04.185Z,6.35
2023-05-25T18:13:31.062Z,6.40
2023-05-25T18:15:58.040Z,6.97
2023-05-25T18:18:24.954Z,7.25
2023-05-25T18:20:51.874Z,6.32
2023-05-25T18:23:18.837Z,6.78
2023-05-25T18:25:46.104Z,5.82
2023-05-25T18:28:15.137Z,7.70
2023-05-25T18:30:45.726Z,6.80
2023-05-25T18:33:12.832Z,8.07
2023-05-25T18:35:39.865Z,8.10
2023-05-25T18:38:06.820Z,9.20
2023-05-25T18:40:33.809Z,7.57
2023-05-25T18:43:00.902Z,7.63
2023-05-25T18:45:27.856Z,6.25
2023-05-25T18:47:54.768Z,6.10
2023-05-25T18:50:21.762Z,7.47
2023-05-25T18:52:51.094Z,7.88
2023-05-25T18:55:19.013Z,6.63
2023-05-25T18:57:46.539Z,6.45
2023-05-25T19:00:14.300Z,6.38
2023-05-25T19:02:41.375Z,8.32
2023-05-25T19:05:11.402Z,13.90
2023-05-25T19:07:54.853Z,7.50
2023-05-25T19:10:25.727Z,6.22
2023-05-25T19:12:52.634Z,10.27
2023-05-25T19:15:19.672Z,9.32
2023-05-25T19:17:49.589Z,8.00
2023-05-25T19:20:16.991Z,7.72
2023-05-25T19:22:44.070Z,11.68
2023-05-25T19:25:11.137Z,6.60
2023-05-25T19:27:37.966Z,8.43
2023-05-25T19:30:05.478Z,10.30
2023-05-25T19:32:32.373Z,5.80
2023-05-25T19:34:59.230Z,6.63
2023-05-25T19:37:26.624Z,8.98
2023-05-25T19:39:53.721Z,8.27
2023-05-25T19:42:20.619Z,7.28
2023-05-25T19:44:47.476Z,9.02
2023-05-25T19:47:14.346Z,7.53
2023-05-25T19:49:41.312Z,9.55
2023-05-25T19:52:08.222Z,6.00
2023-05-25T19:54:35.203Z,7.20
2023-05-25T19:57:02.929Z,5.78
2023-05-25T19:59:31.230Z,6.00
2023-05-25T20:01:58.531Z,7.68
2023-05-25T20:04:25.730Z,7.60
2023-05-25T20:06:53.374Z,9.60
2023-05-25T20:09:24.484Z,13.15
2023-05-25T20:11:51.283Z,9.00
2023-05-25T20:14:20.120Z,8.90
2023-05-25T20:16:47.314Z,10.77
2023-05-25T20:19:14.239Z,9.20
2023-05-25T20:21:41.198Z,7.05
2023-05-25T20:24:08.058Z,8.07
2023-05-25T20:26:34.977Z,7.50
2023-05-25T20:29:01.833Z,7.70
2023-05-25T20:31:28.743Z,9.25
2023-05-25T20:33:55.608Z,8.18
2023-05-25T20:36:22.433Z,11.38
2023-05-25T20:38:49.274Z,9.57
2023-05-25T20:41:16.234Z,9.77
2023-05-25T20:43:43.095Z,8.63
2023-05-25T20:46:10.431Z,7.93
2023-05-25T20:48:39.573Z,8.02
2023-05-25T20:51:06.440Z,7.55
2023-05-25T20:53:33.356Z,7.03
2023-05-25T20:56:01.942Z,7.85
2023-05-25T20:58:28.801Z,7.85
2023-05-25T21:00:55.901Z,9.32
2023-05-25T21:03:22.902Z,12.23
2023-05-25T21:05:49.805Z,6.28
2023-05-25T21:08:16.661Z,7.80
2023-05-25T21:10:43.534Z,6.63
2023-05-25T21:13:10.798Z,7.05
2023-05-25T21:15:37.648Z,8.35
2023-05-25T21:18:06.925Z,6.78
2023-05-25T21:20:34.038Z,5.80
2023-05-25T21:23:02.458Z,10.90
2023-05-25T21:25:30.563Z,10.48
2023-05-25T21:27:57.570Z,7.65
2023-05-25T21:30:24.624Z,11.73
2023-05-25T21:32:51.714Z,12.57
2023-05-25T21:35:18.809Z,13.25
2023-05-25T21:37:46.077Z,9.95
2023-05-25T21:40:13.191Z,11.90
2023-05-25T21:42:40.037Z,12.23
2023-05-25T21:45:07.703Z,7.85
2023-05-25T21:47:34.628Z,9.70
2023-05-25T21:50:01.563Z,8.77
2023-05-25T21:52:28.381Z,7.53
2023-05-25T21:54:55.368Z,9.57
2023-05-25T21:57:22.304Z,9.73
2023-05-25T21:59:49.194Z,10.48
2023-05-25T22:02:16.234Z,7.22
2023-05-25T22:04:43.133Z,10.18
2023-05-25T22:07:09.986Z,11.98
2023-05-25T22:09:36.839Z,9.88
2023-05-25T22:12:04.022Z,11.82
2023-05-25T22:14:30.958Z,9.27
2023-05-25T22:16:57.817Z,9.55
2023-05-25T22:19:24.739Z,9.20
2023-05-25T22:21:53.347Z,10.45
2023-05-25T22:24:20.487Z,11.40
2023-05-25T22:26:47.359Z,12.05
2023-05-25T22:29:14.328Z,8.85
2023-05-25T22:31:41.326Z,8.48
2023-05-25T22:34:08.257Z,9.98
2023-05-25T22:36:35.170Z,10.98
2023-05-25T22:39:01.996Z,10.52
2023-05-25T22:41:28.881Z,7.00
2023-05-25T22:43:55.943Z,8.43
2023-05-25T22:46:23.285Z,10.68
2023-05-25T22:48:50.230Z,9.13
2023-05-25T22:51:17.250Z,9.75
2023-05-25T22:53:44.101Z,8.57
2023-05-25T22:56:11.475Z,7.28
2023-05-25T22:58:39.001Z,10.90
2023-05-25T23:01:05.954Z,10.93
2023-05-25T23:03:32.945Z,9.80
2023-05-25T23:05:59.888Z,7.57
2023-05-25T23:08:27.063Z,9.85
2023-05-25T23:10:53.966Z,9.30
2023-05-25T23:13:23.896Z,13.77
2023-05-25T23:15:51.015Z,13.75
2023-05-25T23:18:17.925Z,12.57
2023-05-25T23:20:45.005Z,11.93
2023-05-25T23:23:12.191Z,9.27
2023-05-25T23:25:39.515Z,10.05
2023-05-25T23:28:06.417Z,10.80
2023-05-25T23:30:33.288Z,11.00
2023-05-25T23:33:00.697Z,9.32
2023-05-25T23:35:28.666Z,11.57
2023-05-25T23:37:57.681Z,10.27
2023-05-25T23:40:24.703Z,10.52
2023-05-25T23:42:52.034Z,9.43
2023-05-25T23:45:19.730Z,15.93
2023-05-25T23:47:46.782Z,10.98
2023-05-25T23:50:13.695Z,12.05
2023-05-25T23:52:41.516Z,10.27
2023-05-25T23:55:08.735Z,14.63
2023-05-25T23:57:36.580Z,10.43
